createdAt,value
2023-01-01T00:01:55.410Z,12.94
2023-01-01T00:06:57.124Z,12.92
2023-01-01T00:11:58.676Z,12.94
2023-01-01T00:17:00.515Z,12.91
2023-01-01T00:22:14.729Z,12.89
2023-01-01T00:27:23.910Z,12.88
2023-01-01T00:32:25.497Z,12.86
2023-01-01T00:37:28.249Z,12.87
2023-01-01T00:42:29.716Z,12.87
2023-01-01T00:47:31.262Z,12.86
2023-01-01T00:52:32.775Z,12.86
2023-01-01T00:57:35.145Z,12.84
2023-01-01T01:02:36.811Z,12.83
2023-01-01T01:07:39.779Z,12.78
2023-01-01T01:12:41.635Z,12.75
2023-01-01T01:17:43.179Z,12.70
2023-01-01T01:22:44.766Z,12.68
2023-01-01T01:27:46.298Z,12.63
2023-01-01T01:32:48.042Z,12.59
2023-01-01T01:37:49.568Z,12.56
2023-01-01T01:42:51.439Z,12.55
2023-01-01T01:47:58.978Z,12.52
2023-01-01T01:53:08.999Z,12.50
2023-01-01T01:58:13.267Z,12.49
2023-01-01T02:03:20.196Z,12.49
2023-01-01T02:08:21.937Z,12.48
2023-01-01T02:13:23.540Z,12.48
2023-01-01T02:18:50.904Z,12.47
2023-01-01T02:24:20.816Z,12.42
2023-01-01T02:29:33.112Z,12.40
2023-01-01T02:34:43.263Z,12.40
2023-01-01T02:39:51.524Z,12.39
2023-01-01T02:44:55.655Z,12.42
2023-01-01T02:50:09.391Z,12.40
2023-01-01T02:55:41.022Z,12.34
2023-01-01T03:00:43.280Z,12.32
2023-01-01T03:06:22.872Z,12.30
2023-01-01T03:11:29.563Z,12.29
2023-01-01T03:16:40.631Z,12.28
2023-01-01T03:21:50.435Z,12.27
2023-01-01T03:26:56.807Z,12.25
2023-01-01T03:32:01.158Z,12.24
2023-01-01T03:37:10.980Z,12.22
2023-01-01T03:42:19.453Z,12.20
2023-01-01T03:47:20.924Z,12.13
2023-01-01T03:52:51.227Z,12.12
2023-01-01T03:58:02.292Z,12.13
2023-01-01T04:03:13.081Z,12.15
2023-01-01T04:08:35.384Z,12.17
2023-01-01T04:13:47.249Z,12.18
2023-01-01T04:18:48.797Z,12.16
2023-01-01T04:23:50.385Z,12.17
2023-01-01T04:28:51.935Z,12.20
2023-01-01T04:33:54.555Z,12.22
2023-01-01T04:38:56.958Z,12.24
2023-01-01T04:43:58.586Z,12.25
2023-01-01T04:49:00.194Z,12.26
2023-01-01T04:54:02.297Z,12.25
2023-01-01T04:59:03.898Z,12.22
2023-01-01T05:04:05.502Z,12.22
2023-01-01T05:09:09.763Z,12.16
2023-01-01T05:14:11.387Z,12.15
2023-01-01T05:19:14.013Z,12.10
2023-01-01T05:24:15.870Z,12.09
2023-01-01T05:29:17.779Z,12.06
2023-01-01T05:34:19.398Z,12.04
2023-01-01T05:39:20.935Z,11.99
2023-01-01T05:44:22.537Z,12.01
2023-01-01T05:49:24.089Z,12.00
2023-01-01T05:54:25.594Z,11.99
2023-01-01T05:59:27.098Z,11.96
2023-01-01T06:04:28.655Z,11.93
2023-01-01T06:09:30.229Z,11.92
2023-01-01T06:14:31.797Z,11.89
2023-01-01T06:19:33.292Z,11.89
2023-01-01T06:24:38.987Z,11.88
2023-01-01T06:29:41.205Z,11.84
2023-01-01T06:34:42.768Z,11.83
2023-01-01T06:39:44.293Z,11.78
2023-01-01T06:44:46.014Z,11.75
2023-01-01T06:49:47.551Z,11.73
2023-01-01T06:54:49.146Z,11.68
2023-01-01T06:59:50.848Z,11.66
2023-01-01T07:04:52.978Z,11.63
2023-01-01T07:09:54.580Z,11.61
2023-01-01T07:14:56.250Z,11.57
2023-01-01T07:19:57.735Z,11.55
2023-01-01T07:24:59.221Z,11.54
2023-01-01T07:30:00.765Z,11.55
2023-01-01T07:35:02.536Z,11.53
2023-01-01T07:40:04.565Z,11.50
2023-01-01T07:50:34.186Z,11.43
2023-01-01T07:55:36.055Z,11.45
2023-01-01T08:00:37.637Z,11.46
2023-01-01T08:05:39.206Z,11.49
2023-01-01T08:10:40.722Z,11.54
2023-01-01T08:15:42.273Z,11.58
2023-01-01T08:20:43.896Z,11.62
2023-01-01T08:25:45.443Z,11.64
2023-01-01T08:30:46.983Z,11.64
2023-01-01T08:35:53.827Z,11.65
2023-01-01T08:40:55.953Z,11.66
2023-01-01T08:45:59.350Z,11.72
2023-01-01T08:51:01.356Z,11.75
2023-01-01T08:56:05.775Z,11.76
2023-01-01T09:01:08.718Z,11.81
2023-01-01T09:06:10.283Z,11.87
2023-01-01T09:11:22.993Z,11.95
2023-01-01T09:16:24.804Z,12.02
2023-01-01T09:21:26.462Z,12.12
2023-01-01T09:26:28.090Z,12.25
2023-01-01T09:31:29.650Z,12.34
2023-01-01T09:36:32.479Z,12.48
2023-01-01T09:41:40.051Z,12.59
2023-01-01T09:46:41.657Z,12.69
2023-01-01T09:51:50.103Z,12.78
2023-01-01T09:56:58.564Z,12.89
2023-01-01T10:02:28.244Z,12.97
2023-01-01T10:07:49.990Z,13.06
2023-01-01T10:13:31.582Z,13.19
2023-01-01T10:18:38.325Z,13.33
2023-01-01T10:24:00.326Z,13.47
2023-01-01T10:29:09.777Z,13.62
2023-01-01T10:34:28.529Z,13.76
2023-01-01T10:39:30.228Z,13.90
2023-01-01T10:44:34.643Z,14.03
2023-01-01T10:49:54.156Z,14.15
2023-01-01T10:54:55.722Z,14.27
2023-01-01T11:00:25.446Z,14.38
2023-01-01T11:05:26.982Z,14.50
2023-01-01T11:10:31.184Z,14.62
2023-01-01T11:15:38.907Z,14.70
2023-01-01T11:20:41.573Z,14.81
2023-01-01T11:25:59.252Z,14.95
2023-01-01T11:31:23.972Z,15.09
2023-01-01T11:36:35.041Z,15.25
2023-01-01T11:41:45.104Z,15.39
2023-01-01T11:46:47.745Z,15.50
2023-01-01T11:51:49.481Z,15.56
2023-01-01T11:56:57.969Z,15.68
2023-01-01T12:02:02.172Z,15.74
2023-01-01T12:07:08.302Z,15.82
2023-01-01T12:12:18.429Z,15.95
2023-01-01T12:17:38.257Z,16.10
2023-01-01T12:22:41.372Z,16.24
2023-01-01T12:28:36.562Z,16.41
2023-01-01T12:34:23.500Z,16.55
2023-01-01T12:40:02.788Z,16.65
2023-01-01T12:45:18.248Z,16.74
2023-01-01T12:51:03.175Z,16.83
2023-01-01T12:56:09.712Z,16.93
2023-01-01T13:01:22.436Z,16.98
2023-01-01T13:06:37.714Z,17.00
2023-01-01T13:11:44.966Z,17.00
2023-01-01T13:16:57.778Z,17.02
2023-01-01T13:22:20.406Z,17.04
2023-01-01T13:27:57.126Z,17.04
2023-01-01T13:33:29.402Z,17.04
2023-01-01T13:38:51.164Z,17.03
2023-01-01T13:44:12.506Z,17.01
2023-01-01T13:49:32.279Z,17.01
2023-01-01T13:55:11.477Z,16.96
2023-01-01T14:00:25.345Z,16.94
2023-01-01T14:05:35.792Z,16.88
2023-01-01T14:10:37.878Z,16.82
2023-01-01T14:15:50.396Z,16.76
2023-01-01T14:20:53.668Z,16.71
2023-01-01T14:25:55.647Z,16.65
2023-01-01T14:31:04.284Z,16.58
2023-01-01T14:36:28.023Z,16.53
2023-01-01T14:41:39.388Z,16.46
2023-01-01T14:46:48.008Z,16.42
2023-01-01T14:51:57.326Z,16.36
2023-01-01T14:56:59.535Z,16.31
2023-01-01T15:02:14.298Z,16.24
2023-01-01T15:07:25.643Z,16.16
2023-01-01T15:12:28.357Z,16.06
2023-01-01T15:17:45.170Z,15.97
2023-01-01T15:22:47.901Z,15.89
2023-01-01T15:27:54.932Z,15.80
2023-01-01T15:33:05.244Z,15.68
2023-01-01T15:38:18.793Z,15.58
2023-01-01T15:43:25.412Z,15.48
2023-01-01T15:48:39.498Z,15.39
2023-01-01T15:53:59.488Z,15.28
2023-01-01T15:59:27.678Z,15.19
2023-01-01T16:04:29.591Z,15.10
2023-01-01T16:09:32.897Z,15.02
2023-01-01T16:14:34.607Z,14.95
2023-01-01T16:19:36.134Z,14.88
2023-01-01T16:24:37.620Z,14.83
2023-01-01T16:29:43.040Z,14.76
2023-01-01T16:34:45.028Z,14.68
2023-01-01T16:39:46.524Z,14.61
2023-01-01T16:44:48.044Z,14.55
2023-01-01T16:49:49.599Z,14.48
2023-01-01T16:54:51.165Z,14.40
2023-01-01T16:59:52.656Z,14.35
2023-01-01T17:04:54.194Z,14.28
2023-01-01T17:09:55.701Z,14.23
2023-01-01T17:14:57.274Z,14.15
2023-01-01T17:19:58.819Z,14.07
2023-01-01T17:25:00.375Z,13.97
2023-01-01T17:30:03.080Z,13.91
2023-01-01T17:35:05.484Z,13.86
2023-01-01T17:40:07.690Z,13.82
2023-01-01T17:45:09.801Z,13.80
2023-01-01T17:50:11.608Z,13.77
2023-01-01T17:55:13.245Z,13.75
2023-01-01T18:00:15.137Z,13.73
2023-01-01T18:05:17.047Z,13.70
2023-01-01T18:10:18.550Z,13.65
2023-01-01T18:15:20.055Z,13.62
2023-01-01T18:20:21.592Z,13.58
2023-01-01T18:25:23.261Z,13.55
2023-01-01T18:30:24.835Z,13.53
2023-01-01T18:35:26.373Z,13.49
2023-01-01T18:40:31.240Z,13.47
2023-01-01T18:45:34.332Z,13.42
2023-01-01T18:50:36.624Z,13.38
2023-01-01T18:55:38.495Z,13.34
2023-01-01T19:00:40.458Z,13.29
2023-01-01T19:05:42.123Z,13.26
2023-01-01T19:10:55.270Z,13.23
2023-01-01T19:16:24.321Z,13.18
2023-01-01T19:21:26.262Z,13.13
2023-01-01T19:26:29.001Z,13.10
2023-01-01T19:31:30.576Z,13.05
2023-01-01T19:36:32.311Z,13.01
2023-01-01T19:41:34.162Z,12.96
2023-01-01T19:46:35.852Z,12.93
2023-01-01T19:51:37.432Z,12.88
2023-01-01T19:56:38.953Z,12.83
2023-01-01T20:01:40.718Z,12.78
2023-01-01T20:06:42.512Z,12.75
2023-01-01T20:11:46.092Z,12.70
2023-01-01T20:16:51.301Z,12.65
2023-01-01T20:22:11.530Z,12.62
2023-01-01T20:27:14.609Z,12.58
2023-01-01T20:32:16.920Z,12.54
2023-01-01T20:37:37.212Z,12.50
2023-01-01T20:42:39.020Z,12.46
2023-01-01T20:47:40.980Z,12.41
2023-01-01T20:52:42.579Z,12.38
2023-01-01T20:57:44.222Z,12.36
2023-01-01T21:02:45.938Z,12.34
2023-01-01T21:07:47.683Z,12.32
2023-01-01T21:12:49.225Z,12.28
2023-01-01T21:17:50.772Z,12.28
2023-01-01T21:22:53.843Z,12.29
2023-01-01T21:27:55.845Z,12.26
2023-01-01T21:32:57.421Z,12.24
2023-01-01T21:38:00.323Z,12.20
2023-01-01T21:43:02.079Z,12.18
2023-01-01T21:48:14.463Z,12.18
2023-01-01T21:53:22.582Z,12.17
2023-01-01T21:58:53.010Z,12.13
2023-01-01T22:04:02.287Z,12.10
2023-01-01T22:09:16.194Z,12.09
2023-01-01T22:14:21.253Z,12.07
2023-01-01T22:19:24.373Z,12.06
2023-01-01T22:24:35.447Z,12.04
2023-01-01T22:29:36.957Z,12.02
2023-01-01T22:34:38.507Z,12.01
2023-01-01T22:39:40.020Z,12.00
2023-01-01T22:44:41.661Z,11.97
2023-01-01T22:49:51.358Z,11.95
2023-01-01T22:54:52.906Z,11.92
2023-01-01T22:59:54.498Z,11.91
2023-01-01T23:04:56.101Z,11.88
2023-01-01T23:10:00.508Z,11.86
2023-01-01T23:15:20.976Z,11.80
2023-01-01T23:20:22.746Z,11.74
2023-01-01T23:25:24.527Z,11.70
2023-01-01T23:30:26.078Z,11.65
2023-01-01T23:35:27.650Z,11.60
2023-01-01T23:40:29.186Z,11.54
2023-01-01T23:45:30.781Z,11.50
2023-01-01T23:50:32.898Z,11.48
2023-01-01T23:55:34.475Z,11.45
